Glen Alpine, North Carolina
Current Conditions -  °F | °C
As of 9:55 AM on Monday 22 Dec 2014 (Local Time) from KMRN Reporting Station
Haze Haze  
Wind Chill: 35°   Ceiling: 900
Heat Index: 38°   Visibility: 2.5mi
Dew Point: 38°   Wind: 5mph
Humidity: 97%   Direction: 20°NNE
Pressure: 30.19"   Gusts: NA
Location:  35.73°N, 81.78°W
Report Text: KMRN 221455Z AUTO 02004KT 2 1/2SM BR SCT005 BKN009 OVC020 04/03 A3019 RMK AO2 T00350031
Loading
Personal Weather Stations






























Interactive Weather Map New forecast layout! Learn more

10-Day Weather Forecast

Advertisements
Track Severe Weather on mobile